sensor_id;sensor_type;location;lat;lon;timestamp;temperature;humidity
32217;DHT22;67098;51.140;4.088;2023-09-18T00:01:40;23.40;96.80
32217;DHT22;67098;51.140;4.088;2023-09-18T00:04:06;23.40;96.80
32217;DHT22;67098;51.140;4.088;2023-09-18T00:06:35;23.40;96.80
32217;DHT22;67098;51.140;4.088;2023-09-18T00:09:01;23.40;96.90
32217;DHT22;67098;51.140;4.088;2023-09-18T00:11:27;23.40;96.90
32217;DHT22;67098;51.140;4.088;2023-09-18T00:13:52;23.40;96.90
32217;DHT22;67098;51.140;4.088;2023-09-18T00:16:18;23.40;96.90
32217;DHT22;67098;51.140;4.088;2023-09-18T00:18:44;23.40;97.10
32217;DHT22;67098;51.140;4.088;2023-09-18T00:21:11;23.40;96.90
32217;DHT22;67098;51.140;4.088;2023-09-18T00:23:37;23.40;96.90
32217;DHT22;67098;51.140;4.088;2023-09-18T00:26:03;23.30;96.80
32217;DHT22;67098;51.140;4.088;2023-09-18T00:28:29;23.30;96.90
32217;DHT22;67098;51.140;4.088;2023-09-18T00:30:55;23.30;96.90
32217;DHT22;67098;51.140;4.088;2023-09-18T00:33:20;23.30;97.00
32217;DHT22;67098;51.140;4.088;2023-09-18T00:35:48;23.20;97.00
32217;DHT22;67098;51.140;4.088;2023-09-18T00:38:14;23.20;97.00
32217;DHT22;67098;51.140;4.088;2023-09-18T00:40:40;23.20;97.00
32217;DHT22;67098;51.140;4.088;2023-09-18T00:43:07;23.30;97.10
32217;DHT22;67098;51.140;4.088;2023-09-18T00:45:32;23.20;97.30
32217;DHT22;67098;51.140;4.088;2023-09-18T00:47:59;23.30;97.10
32217;DHT22;67098;51.140;4.088;2023-09-18T00:50:25;23.30;97.10
32217;DHT22;67098;51.140;4.088;2023-09-18T00:52:52;23.20;97.00
32217;DHT22;67098;51.140;4.088;2023-09-18T00:55:18;23.20;97.10
32217;DHT22;67098;51.140;4.088;2023-09-18T00:57:45;23.20;97.20
32217;DHT22;67098;51.140;4.088;2023-09-18T01:00:12;23.30;97.20
32217;DHT22;67098;51.140;4.088;2023-09-18T01:02:43;23.30;97.20
32217;DHT22;67098;51.140;4.088;2023-09-18T01:05:08;23.30;97.30
32217;DHT22;67098;51.140;4.088;2023-09-18T01:07:34;23.20;97.30
32217;DHT22;67098;51.140;4.088;2023-09-18T01:10:00;23.20;97.40
32217;DHT22;67098;51.140;4.088;2023-09-18T01:15:21;23.30;97.40
32217;DHT22;67098;51.140;4.088;2023-09-18T01:17:48;23.30;97.40
32217;DHT22;67098;51.140;4.088;2023-09-18T01:20:15;23.20;97.60
32217;DHT22;67098;51.140;4.088;2023-09-18T01:22:41;23.20;97.60
32217;DHT22;67098;51.140;4.088;2023-09-18T01:25:06;23.20;97.70
32217;DHT22;67098;51.140;4.088;2023-09-18T01:27:33;23.20;97.70
32217;DHT22;67098;51.140;4.088;2023-09-18T01:29:59;23.20;97.70
32217;DHT22;67098;51.140;4.088;2023-09-18T01:32:27;23.30;97.70
32217;DHT22;67098;51.140;4.088;2023-09-18T01:34:57;23.30;97.70
32217;DHT22;67098;51.140;4.088;2023-09-18T01:37:30;23.20;97.80
32217;DHT22;67098;51.140;4.088;2023-09-18T01:39:56;23.30;97.80
32217;DHT22;67098;51.140;4.088;2023-09-18T01:42:26;23.20;97.70
32217;DHT22;67098;51.140;4.088;2023-09-18T01:44:53;23.20;98.00
32217;DHT22;67098;51.140;4.088;2023-09-18T01:47:21;23.20;97.90
32217;DHT22;67098;51.140;4.088;2023-09-18T01:49:49;23.20;97.80
32217;DHT22;67098;51.140;4.088;2023-09-18T01:52:15;23.20;97.80
32217;DHT22;67098;51.140;4.088;2023-09-18T01:54:41;23.20;97.90
32217;DHT22;67098;51.140;4.088;2023-09-18T01:57:07;23.20;97.90
32217;DHT22;67098;51.140;4.088;2023-09-18T01:59:33;23.20;97.80
32217;DHT22;67098;51.140;4.088;2023-09-18T02:01:59;23.20;97.90
32217;DHT22;67098;51.140;4.088;2023-09-18T02:04:26;23.20;97.90
32217;DHT22;67098;51.140;4.088;2023-09-18T02:06:52;23.20;98.00
32217;DHT22;67098;51.140;4.088;2023-09-18T02:09:18;23.10;98.00
32217;DHT22;67098;51.140;4.088;2023-09-18T02:11:46;23.10;98.00
32217;DHT22;67098;51.140;4.088;2023-09-18T02:14:12;23.10;98.10
32217;DHT22;67098;51.140;4.088;2023-09-18T02:16:41;23.00;98.10
32217;DHT22;67098;51.140;4.088;2023-09-18T02:19:09;23.00;98.20
32217;DHT22;67098;51.140;4.088;2023-09-18T02:21:35;23.00;98.30
32217;DHT22;67098;51.140;4.088;2023-09-18T02:24:01;23.00;98.20
32217;DHT22;67098;51.140;4.088;2023-09-18T02:26:27;23.00;98.20
32217;DHT22;67098;51.140;4.088;2023-09-18T02:28:54;23.00;98.20
32217;DHT22;67098;51.140;4.088;2023-09-18T02:31:20;23.00;98.30
32217;DHT22;67098;51.140;4.088;2023-09-18T02:33:48;23.00;98.30
32217;DHT22;67098;51.140;4.088;2023-09-18T02:36:14;23.00;98.20
32217;DHT22;67098;51.140;4.088;2023-09-18T02:38:40;22.90;98.20
32217;DHT22;67098;51.140;4.088;2023-09-18T02:41:06;22.90;98.20
32217;DHT22;67098;51.140;4.088;2023-09-18T02:43:31;22.90;98.20
32217;DHT22;67098;51.140;4.088;2023-09-18T02:45:57;22.90;98.30
32217;DHT22;67098;51.140;4.088;2023-09-18T02:48:23;22.90;98.10
32217;DHT22;67098;51.140;4.088;2023-09-18T02:50:49;22.90;98.30
32217;DHT22;67098;51.140;4.088;2023-09-18T02:53:20;22.90;98.20
32217;DHT22;67098;51.140;4.088;2023-09-18T02:55:49;22.90;98.00
32217;DHT22;67098;51.140;4.088;2023-09-18T02:58:15;22.90;98.10
32217;DHT22;67098;51.140;4.088;2023-09-18T03:00:42;22.90;98.10
32217;DHT22;67098;51.140;4.088;2023-09-18T03:03:09;22.90;98.10
32217;DHT22;67098;51.140;4.088;2023-09-18T03:05:36;22.80;98.20
32217;DHT22;67098;51.140;4.088;2023-09-18T03:08:02;22.80;98.30
32217;DHT22;67098;51.140;4.088;2023-09-18T03:10:35;22.80;98.30
32217;DHT22;67098;51.140;4.088;2023-09-18T03:13:04;22.80;98.30
32217;DHT22;67098;51.140;4.088;2023-09-18T03:15:31;22.80;98.40
32217;DHT22;67098;51.140;4.088;2023-09-18T03:18:00;22.70;98.40
32217;DHT22;67098;51.140;4.088;2023-09-18T03:20:27;22.70;98.40
32217;DHT22;67098;51.140;4.088;2023-09-18T03:22:56;22.70;98.30
32217;DHT22;67098;51.140;4.088;2023-09-18T03:25:22;22.80;98.00
32217;DHT22;67098;51.140;4.088;2023-09-18T03:27:50;22.70;98.00
32217;DHT22;67098;51.140;4.088;2023-09-18T03:30:17;22.80;98.00
32217;DHT22;67098;51.140;4.088;2023-09-18T03:32:44;22.80;97.90
32217;DHT22;67098;51.140;4.088;2023-09-18T03:35:11;22.70;97.90
32217;DHT22;67098;51.140;4.088;2023-09-18T03:37:50;22.70;97.80
32217;DHT22;67098;51.140;4.088;2023-09-18T03:40:17;22.70;97.90
32217;DHT22;67098;51.140;4.088;2023-09-18T03:42:43;22.70;97.80
32217;DHT22;67098;51.140;4.088;2023-09-18T03:45:09;22.70;97.80
32217;DHT22;67098;51.140;4.088;2023-09-18T03:47:40;22.70;97.90
32217;DHT22;67098;51.140;4.088;2023-09-18T03:50:08;22.70;97.90
32217;DHT22;67098;51.140;4.088;2023-09-18T03:52:34;22.70;98.00
32217;DHT22;67098;51.140;4.088;2023-09-18T03:55:00;22.70;98.00
32217;DHT22;67098;51.140;4.088;2023-09-18T03:57:26;22.70;97.80
32217;DHT22;67098;51.140;4.088;2023-09-18T03:59:51;22.60;97.80
32217;DHT22;67098;51.140;4.088;2023-09-18T04:02:17;22.60;97.90
32217;DHT22;67098;51.140;4.088;2023-09-18T04:04:43;22.60;98.00
32217;DHT22;67098;51.140;4.088;2023-09-18T04:07:09;22.60;97.90
32217;DHT22;67098;51.140;4.088;2023-09-18T04:09:35;22.60;98.00
32217;DHT22;67098;51.140;4.088;2023-09-18T04:12:02;22.60;98.10
32217;DHT22;67098;51.140;4.088;2023-09-18T04:14:28;22.60;98.30
32217;DHT22;67098;51.140;4.088;2023-09-18T04:16:53;22.60;98.00
32217;DHT22;67098;51.140;4.088;2023-09-18T04:19:19;22.50;97.90
32217;DHT22;67098;51.140;4.088;2023-09-18T04:21:45;22.40;98.00
32217;DHT22;67098;51.140;4.088;2023-09-18T04:24:12;22.40;98.00
32217;DHT22;67098;51.140;4.088;2023-09-18T04:26:38;22.40;98.10
32217;DHT22;67098;51.140;4.088;2023-09-18T04:29:05;22.40;97.80
32217;DHT22;67098;51.140;4.088;2023-09-18T04:31:31;22.40;97.90
32217;DHT22;67098;51.140;4.088;2023-09-18T04:33:57;22.30;97.90
32217;DHT22;67098;51.140;4.088;2023-09-18T04:36:23;22.20;98.00
32217;DHT22;67098;51.140;4.088;2023-09-18T04:38:50;22.20;98.10
32217;DHT22;67098;51.140;4.088;2023-09-18T04:41:16;22.10;98.30
32217;DHT22;67098;51.140;4.088;2023-09-18T04:43:42;22.00;98.20
32217;DHT22;67098;51.140;4.088;2023-09-18T04:46:08;21.90;98.20
32217;DHT22;67098;51.140;4.088;2023-09-18T04:48:34;21.90;98.30
32217;DHT22;67098;51.140;4.088;2023-09-18T04:51:00;21.80;98.30
32217;DHT22;67098;51.140;4.088;2023-09-18T04:53:30;21.80;98.40
32217;DHT22;67098;51.140;4.088;2023-09-18T04:55:56;21.70;98.40
32217;DHT22;67098;51.140;4.088;2023-09-18T04:58:22;21.70;98.30
32217;DHT22;67098;51.140;4.088;2023-09-18T05:00:55;21.60;98.40
32217;DHT22;67098;51.140;4.088;2023-09-18T05:03:21;21.70;98.40
32217;DHT22;67098;51.140;4.088;2023-09-18T05:05:47;21.70;98.20
32217;DHT22;67098;51.140;4.088;2023-09-18T05:08:13;21.70;98.00
32217;DHT22;67098;51.140;4.088;2023-09-18T05:10:39;21.70;98.10
32217;DHT22;67098;51.140;4.088;2023-09-18T05:13:04;21.70;98.10
32217;DHT22;67098;51.140;4.088;2023-09-18T05:15:31;21.70;98.00
32217;DHT22;67098;51.140;4.088;2023-09-18T05:17:58;21.80;97.90
32217;DHT22;67098;51.140;4.088;2023-09-18T05:20:25;21.70;98.10
32217;DHT22;67098;51.140;4.088;2023-09-18T05:22:51;21.60;98.00
32217;DHT22;67098;51.140;4.088;2023-09-18T05:25:21;21.60;98.10
32217;DHT22;67098;51.140;4.088;2023-09-18T05:27:49;21.60;98.00
32217;DHT22;67098;51.140;4.088;2023-09-18T05:30:25;21.60;97.90
32217;DHT22;67098;51.140;4.088;2023-09-18T05:32:54;21.60;97.90
32217;DHT22;67098;51.140;4.088;2023-09-18T05:35:20;21.60;97.80
32217;DHT22;67098;51.140;4.088;2023-09-18T05:37:47;21.60;97.80
32217;DHT22;67098;51.140;4.088;2023-09-18T05:40:14;21.60;97.90
32217;DHT22;67098;51.140;4.088;2023-09-18T05:42:41;21.60;97.80
32217;DHT22;67098;51.140;4.088;2023-09-18T05:45:12;21.50;97.90
32217;DHT22;67098;51.140;4.088;2023-09-18T05:47:38;21.50;97.80
32217;DHT22;67098;51.140;4.088;2023-09-18T05:50:09;21.50;97.70
32217;DHT22;67098;51.140;4.088;2023-09-18T05:52:35;21.40;97.70
32217;DHT22;67098;51.140;4.088;2023-09-18T05:55:05;21.40;97.60
32217;DHT22;67098;51.140;4.088;2023-09-18T05:57:32;21.40;97.60
32217;DHT22;67098;51.140;4.088;2023-09-18T05:59:58;21.40;97.40
32217;DHT22;67098;51.140;4.088;2023-09-18T06:02:24;21.30;97.60
32217;DHT22;67098;51.140;4.088;2023-09-18T06:04:56;21.40;97.40
32217;DHT22;67098;51.140;4.088;2023-09-18T06:07:24;21.30;97.50
32217;DHT22;67098;51.140;4.088;2023-09-18T06:09:50;21.30;97.50
32217;DHT22;67098;51.140;4.088;2023-09-18T06:12:16;21.30;97.60
32217;DHT22;67098;51.140;4.088;2023-09-18T06:14:42;21.10;97.70
32217;DHT22;67098;51.140;4.088;2023-09-18T06:17:08;21.20;97.50
32217;DHT22;67098;51.140;4.088;2023-09-18T06:19:35;21.30;97.40
32217;DHT22;67098;51.140;4.088;2023-09-18T06:22:01;21.30;97.30
32217;DHT22;67098;51.140;4.088;2023-09-18T06:24:27;21.30;97.30
32217;DHT22;67098;51.140;4.088;2023-09-18T06:26:53;21.30;97.40
32217;DHT22;67098;51.140;4.088;2023-09-18T06:29:19;21.40;97.30
32217;DHT22;67098;51.140;4.088;2023-09-18T06:31:46;21.30;97.30
32217;DHT22;67098;51.140;4.088;2023-09-18T06:34:12;21.30;97.20
32217;DHT22;67098;51.140;4.088;2023-09-18T06:36:37;21.40;97.20
32217;DHT22;67098;51.140;4.088;2023-09-18T06:39:03;21.40;97.10
32217;DHT22;67098;51.140;4.088;2023-09-18T06:41:29;21.40;97.10
32217;DHT22;67098;51.140;4.088;2023-09-18T06:43:55;21.50;97.00
32217;DHT22;67098;51.140;4.088;2023-09-18T06:46:22;21.30;97.10
32217;DHT22;67098;51.140;4.088;2023-09-18T06:48:48;21.30;97.30
32217;DHT22;67098;51.140;4.088;2023-09-18T06:51:16;21.40;97.30
32217;DHT22;67098;51.140;4.088;2023-09-18T06:53:43;21.40;97.30
32217;DHT22;67098;51.140;4.088;2023-09-18T06:56:09;21.40;97.50
32217;DHT22;67098;51.140;4.088;2023-09-18T06:58:35;21.30;97.30
32217;DHT22;67098;51.140;4.088;2023-09-18T07:01:01;21.30;97.30
32217;DHT22;67098;51.140;4.088;2023-09-18T07:03:27;21.40;97.10
32217;DHT22;67098;51.140;4.088;2023-09-18T07:05:52;21.40;97.10
32217;DHT22;67098;51.140;4.088;2023-09-18T07:08:18;21.50;97.00
32217;DHT22;67098;51.140;4.088;2023-09-18T07:10:49;21.60;96.80
32217;DHT22;67098;51.140;4.088;2023-09-18T07:13:16;21.70;96.50
32217;DHT22;67098;51.140;4.088;2023-09-18T07:15:41;21.80;96.50
32217;DHT22;67098;51.140;4.088;2023-09-18T07:18:07;21.80;96.40
32217;DHT22;67098;51.140;4.088;2023-09-18T07:20:35;21.80;96.30
32217;DHT22;67098;51.140;4.088;2023-09-18T07:23:01;22.00;96.10
32217;DHT22;67098;51.140;4.088;2023-09-18T07:25:27;22.20;96.20
32217;DHT22;67098;51.140;4.088;2023-09-18T07:27:53;22.20;96.20
32217;DHT22;67098;51.140;4.088;2023-09-18T07:30:18;22.30;95.80
32217;DHT22;67098;51.140;4.088;2023-09-18T07:32:47;22.40;95.50
32217;DHT22;67098;51.140;4.088;2023-09-18T07:35:13;22.40;95.70
32217;DHT22;67098;51.140;4.088;2023-09-18T07:37:40;22.30;95.40
32217;DHT22;67098;51.140;4.088;2023-09-18T07:40:06;22.40;95.40
32217;DHT22;67098;51.140;4.088;2023-09-18T07:42:33;22.50;95.40
32217;DHT22;67098;51.140;4.088;2023-09-18T07:44:59;22.60;95.20
32217;DHT22;67098;51.140;4.088;2023-09-18T07:47:25;22.60;95.20
32217;DHT22;67098;51.140;4.088;2023-09-18T07:49:51;22.50;95.30
32217;DHT22;67098;51.140;4.088;2023-09-18T07:52:17;22.20;95.60
32217;DHT22;67098;51.140;4.088;2023-09-18T07:54:43;22.20;95.60
32217;DHT22;67098;51.140;4.088;2023-09-18T07:57:09;22.40;95.40
32217;DHT22;67098;51.140;4.088;2023-09-18T07:59:38;22.40;95.40
32217;DHT22;67098;51.140;4.088;2023-09-18T08:02:05;22.40;95.40
32217;DHT22;67098;51.140;4.088;2023-09-18T08:04:32;22.40;95.30
32217;DHT22;67098;51.140;4.088;2023-09-18T08:06:58;22.40;95.50
32217;DHT22;67098;51.140;4.088;2023-09-18T08:09:23;22.30;95.60
32217;DHT22;67098;51.140;4.088;2023-09-18T08:11:49;22.30;95.40
32217;DHT22;67098;51.140;4.088;2023-09-18T08:14:16;22.40;95.50
32217;DHT22;67098;51.140;4.088;2023-09-18T08:16:42;22.50;95.10
32217;DHT22;67098;51.140;4.088;2023-09-18T08:19:08;22.40;95.40
32217;DHT22;67098;51.140;4.088;2023-09-18T08:21:35;22.50;95.40
32217;DHT22;67098;51.140;4.088;2023-09-18T08:24:01;22.50;95.10
32217;DHT22;67098;51.140;4.088;2023-09-18T08:26:26;22.60;94.90
32217;DHT22;67098;51.140;4.088;2023-09-18T08:28:54;22.60;94.80
32217;DHT22;67098;51.140;4.088;2023-09-18T08:31:19;22.50;95.10
32217;DHT22;67098;51.140;4.088;2023-09-18T08:33:45;22.40;95.10
32217;DHT22;67098;51.140;4.088;2023-09-18T08:36:11;22.30;95.40
32217;DHT22;67098;51.140;4.088;2023-09-18T08:38:38;22.20;95.40
32217;DHT22;67098;51.140;4.088;2023-09-18T08:41:03;22.40;95.30
32217;DHT22;67098;51.140;4.088;2023-09-18T08:43:32;22.40;95.20
32217;DHT22;67098;51.140;4.088;2023-09-18T08:45:57;22.40;95.10
32217;DHT22;67098;51.140;4.088;2023-09-18T08:48:28;22.50;94.80
32217;DHT22;67098;51.140;4.088;2023-09-18T08:51:05;22.50;94.80
32217;DHT22;67098;51.140;4.088;2023-09-18T08:53:31;22.30;95.10
32217;DHT22;67098;51.140;4.088;2023-09-18T08:55:59;22.20;94.90
32217;DHT22;67098;51.140;4.088;2023-09-18T08:58:33;22.00;95.40
32217;DHT22;67098;51.140;4.088;2023-09-18T09:01:02;21.90;95.50
32217;DHT22;67098;51.140;4.088;2023-09-18T09:03:29;21.90;95.60
32217;DHT22;67098;51.140;4.088;2023-09-18T09:05:56;21.80;95.70
32217;DHT22;67098;51.140;4.088;2023-09-18T09:08:22;21.80;95.80
32217;DHT22;67098;51.140;4.088;2023-09-18T09:10:48;21.80;95.70
32217;DHT22;67098;51.140;4.088;2023-09-18T09:13:14;21.80;95.50
32217;DHT22;67098;51.140;4.088;2023-09-18T09:15:47;22.00;95.20
32217;DHT22;67098;51.140;4.088;2023-09-18T09:18:14;22.00;95.00
32217;DHT22;67098;51.140;4.088;2023-09-18T09:21:01;22.20;94.70
32217;DHT22;67098;51.140;4.088;2023-09-18T09:23:49;22.20;94.80
32217;DHT22;67098;51.140;4.088;2023-09-18T09:26:19;22.40;94.50
32217;DHT22;67098;51.140;4.088;2023-09-18T09:28:46;22.70;94.50
32217;DHT22;67098;51.140;4.088;2023-09-18T09:31:29;23.00;94.10
32217;DHT22;67098;51.140;4.088;2023-09-18T09:33:56;23.30;93.30
32217;DHT22;67098;51.140;4.088;2023-09-18T09:36:23;23.50;93.00
32217;DHT22;67098;51.140;4.088;2023-09-18T09:38:56;23.80;92.90
32217;DHT22;67098;51.140;4.088;2023-09-18T09:41:23;23.80;92.50
32217;DHT22;67098;51.140;4.088;2023-09-18T09:43:49;23.90;92.20
32217;DHT22;67098;51.140;4.088;2023-09-18T09:46:17;23.90;92.00
32217;DHT22;67098;51.140;4.088;2023-09-18T09:49:00;23.50;92.20
32217;DHT22;67098;51.140;4.088;2023-09-18T09:51:28;23.40;92.20
32217;DHT22;67098;51.140;4.088;2023-09-18T09:53:55;23.20;92.70
32217;DHT22;67098;51.140;4.088;2023-09-18T09:56:21;22.80;93.30
32217;DHT22;67098;51.140;4.088;2023-09-18T09:59:02;22.80;93.20
32217;DHT22;67098;51.140;4.088;2023-09-18T10:01:30;22.80;93.10
32217;DHT22;67098;51.140;4.088;2023-09-18T10:03:58;22.80;93.10
32217;DHT22;67098;51.140;4.088;2023-09-18T10:06:24;22.70;93.00
32217;DHT22;67098;51.140;4.088;2023-09-18T10:08:51;22.60;93.50
32217;DHT22;67098;51.140;4.088;2023-09-18T10:11:19;22.60;93.30
32217;DHT22;67098;51.140;4.088;2023-09-18T10:13:51;22.70;93.00
32217;DHT22;67098;51.140;4.088;2023-09-18T10:16:19;22.60;93.20
32217;DHT22;67098;51.140;4.088;2023-09-18T10:22:05;22.70;93.50
32217;DHT22;67098;51.140;4.088;2023-09-18T10:24:37;22.70;93.40
32217;DHT22;67098;51.140;4.088;2023-09-18T10:27:04;22.80;93.00
32217;DHT22;67098;51.140;4.088;2023-09-18T10:29:33;22.90;93.20
32217;DHT22;67098;51.140;4.088;2023-09-18T10:32:03;23.00;92.70
32217;DHT22;67098;51.140;4.088;2023-09-18T10:34:30;23.30;92.50
32217;DHT22;67098;51.140;4.088;2023-09-18T10:36:59;23.50;92.30
32217;DHT22;67098;51.140;4.088;2023-09-18T10:39:26;23.90;91.80
32217;DHT22;67098;51.140;4.088;2023-09-18T10:41:55;24.30;91.30
32217;DHT22;67098;51.140;4.088;2023-09-18T10:44:27;24.50;91.00
32217;DHT22;67098;51.140;4.088;2023-09-18T10:46:53;25.00;90.40
32217;DHT22;67098;51.140;4.088;2023-09-18T10:49:20;25.20;88.20
32217;DHT22;67098;51.140;4.088;2023-09-18T10:51:46;25.70;86.90
32217;DHT22;67098;51.140;4.088;2023-09-18T10:54:19;25.80;85.90
32217;DHT22;67098;51.140;4.088;2023-09-18T10:56:46;25.70;85.80
32217;DHT22;67098;51.140;4.088;2023-09-18T10:59:15;25.60;86.60
32217;DHT22;67098;51.140;4.088;2023-09-18T11:01:44;25.50;86.20
32217;DHT22;67098;51.140;4.088;2023-09-18T11:04:11;25.20;87.00
32217;DHT22;67098;51.140;4.088;2023-09-18T11:12:11;24.70;88.60
32217;DHT22;67098;51.140;4.088;2023-09-18T11:20:07;24.90;88.60
32217;DHT22;67098;51.140;4.088;2023-09-18T11:28:01;25.80;87.90
32217;DHT22;67098;51.140;4.088;2023-09-18T11:30:28;26.60;85.70
32217;DHT22;67098;51.140;4.088;2023-09-18T11:32:54;27.10;84.30
32217;DHT22;67098;51.140;4.088;2023-09-18T11:35:21;27.50;83.00
32217;DHT22;67098;51.140;4.088;2023-09-18T11:37:52;28.40;81.50
32217;DHT22;67098;51.140;4.088;2023-09-18T11:40:31;29.10;79.00
32217;DHT22;67098;51.140;4.088;2023-09-18T11:43:26;30.00;77.80
32217;DHT22;67098;51.140;4.088;2023-09-18T11:45:59;30.70;74.50
32217;DHT22;67098;51.140;4.088;2023-09-18T11:48:27;31.30;72.30
32217;DHT22;67098;51.140;4.088;2023-09-18T11:50:57;31.50;72.20
32217;DHT22;67098;51.140;4.088;2023-09-18T11:53:24;31.30;70.10
32217;DHT22;67098;51.140;4.088;2023-09-18T11:55:52;31.40;69.80
32217;DHT22;67098;51.140;4.088;2023-09-18T11:58:18;31.20;70.00
32217;DHT22;67098;51.140;4.088;2023-09-18T12:00:49;31.20;69.00
32217;DHT22;67098;51.140;4.088;2023-09-18T12:03:21;31.10;69.40
32217;DHT22;67098;51.140;4.088;2023-09-18T12:05:56;31.30;68.80
32217;DHT22;67098;51.140;4.088;2023-09-18T12:08:23;31.80;68.40
32217;DHT22;67098;51.140;4.088;2023-09-18T12:10:52;31.90;67.40
32217;DHT22;67098;51.140;4.088;2023-09-18T12:13:18;31.60;67.70
32217;DHT22;67098;51.140;4.088;2023-09-18T12:15:44;31.30;67.40
32217;DHT22;67098;51.140;4.088;2023-09-18T12:18:11;30.70;67.70
32217;DHT22;67098;51.140;4.088;2023-09-18T12:20:50;30.40;68.60
32217;DHT22;67098;51.140;4.088;2023-09-18T12:23:17;29.90;70.20
32217;DHT22;67098;51.140;4.088;2023-09-18T12:25:48;29.90;70.20
32217;DHT22;67098;51.140;4.088;2023-09-18T12:28:15;29.60;70.80
32217;DHT22;67098;51.140;4.088;2023-09-18T12:30:42;29.50;72.00
32217;DHT22;67098;51.140;4.088;2023-09-18T12:33:09;29.90;71.80
32217;DHT22;67098;51.140;4.088;2023-09-18T12:35:35;30.60;70.40
32217;DHT22;67098;51.140;4.088;2023-09-18T12:38:22;31.30;68.70
32217;DHT22;67098;51.140;4.088;2023-09-18T12:40:53;31.70;66.80
32217;DHT22;67098;51.140;4.088;2023-09-18T12:43:21;32.50;66.80
32217;DHT22;67098;51.140;4.088;2023-09-18T12:45:49;33.10;65.60
32217;DHT22;67098;51.140;4.088;2023-09-18T12:48:15;33.50;64.10
32217;DHT22;67098;51.140;4.088;2023-09-18T12:50:41;33.30;63.60
32217;DHT22;67098;51.140;4.088;2023-09-18T12:53:14;32.70;63.20
32217;DHT22;67098;51.140;4.088;2023-09-18T12:55:41;32.10;63.00
32217;DHT22;67098;51.140;4.088;2023-09-18T12:58:11;31.50;64.60
32217;DHT22;67098;51.140;4.088;2023-09-18T13:00:40;30.90;65.00
32217;DHT22;67098;51.140;4.088;2023-09-18T13:03:15;31.20;65.40
32217;DHT22;67098;51.140;4.088;2023-09-18T13:05:41;31.80;65.20
32217;DHT22;67098;51.140;4.088;2023-09-18T13:08:07;32.10;64.20
32217;DHT22;67098;51.140;4.088;2023-09-18T13:10:47;31.90;64.00
32217;DHT22;67098;51.140;4.088;2023-09-18T13:13:22;31.60;64.70
32217;DHT22;67098;51.140;4.088;2023-09-18T13:15:51;31.60;64.00
32217;DHT22;67098;51.140;4.088;2023-09-18T13:18:17;32.00;63.50
32217;DHT22;67098;51.140;4.088;2023-09-18T13:20:44;32.10;63.80
32217;DHT22;67098;51.140;4.088;2023-09-18T13:23:10;31.90;64.10
32217;DHT22;67098;51.140;4.088;2023-09-18T13:25:39;31.10;64.20
32217;DHT22;67098;51.140;4.088;2023-09-18T13:28:11;30.70;65.60
32217;DHT22;67098;51.140;4.088;2023-09-18T13:30:39;30.30;65.90
32217;DHT22;67098;51.140;4.088;2023-09-18T13:33:11;29.80;66.10
32217;DHT22;67098;51.140;4.088;2023-09-18T13:35:39;29.60;66.70
32217;DHT22;67098;51.140;4.088;2023-09-18T13:38:06;29.30;67.20
32217;DHT22;67098;51.140;4.088;2023-09-18T13:40:37;28.90;67.70
32217;DHT22;67098;51.140;4.088;2023-09-18T13:43:04;28.50;68.30
32217;DHT22;67098;51.140;4.088;2023-09-18T13:45:31;28.00;67.80
32217;DHT22;67098;51.140;4.088;2023-09-18T13:47:57;26.90;67.60
32217;DHT22;67098;51.140;4.088;2023-09-18T13:50:23;25.70;73.70
32217;DHT22;67098;51.140;4.088;2023-09-18T13:52:48;24.40;78.50
32217;DHT22;67098;51.140;4.088;2023-09-18T13:55:14;23.50;83.30
32217;DHT22;67098;51.140;4.088;2023-09-18T13:57:40;23.00;86.10
32217;DHT22;67098;51.140;4.088;2023-09-18T14:00:07;22.50;88.60
32217;DHT22;67098;51.140;4.088;2023-09-18T14:02:35;22.30;90.50
32217;DHT22;67098;51.140;4.088;2023-09-18T14:05:00;22.00;91.80
32217;DHT22;67098;51.140;4.088;2023-09-18T14:07:26;21.80;92.40
32217;DHT22;67098;51.140;4.088;2023-09-18T14:09:53;21.60;93.00
32217;DHT22;67098;51.140;4.088;2023-09-18T14:12:19;21.70;92.80
32217;DHT22;67098;51.140;4.088;2023-09-18T14:14:45;21.60;93.20
32217;DHT22;67098;51.140;4.088;2023-09-18T14:17:11;21.50;93.40
32217;DHT22;67098;51.140;4.088;2023-09-18T14:19:38;21.40;94.10
32217;DHT22;67098;51.140;4.088;2023-09-18T14:22:05;21.50;94.20
32217;DHT22;67098;51.140;4.088;2023-09-18T14:24:31;21.80;94.00
32217;DHT22;67098;51.140;4.088;2023-09-18T14:27:00;21.90;94.10
32217;DHT22;67098;51.140;4.088;2023-09-18T14:29:26;22.50;94.00
32217;DHT22;67098;51.140;4.088;2023-09-18T14:31:52;23.60;93.10
32217;DHT22;67098;51.140;4.088;2023-09-18T14:34:18;25.10;91.30
32217;DHT22;67098;51.140;4.088;2023-09-18T14:36:44;25.90;88.40
32217;DHT22;67098;51.140;4.088;2023-09-18T14:39:10;26.50;86.50
32217;DHT22;67098;51.140;4.088;2023-09-18T14:41:37;27.20;85.70
32217;DHT22;67098;51.140;4.088;2023-09-18T14:44:04;27.70;83.60
32217;DHT22;67098;51.140;4.088;2023-09-18T14:46:30;27.80;82.40
32217;DHT22;67098;51.140;4.088;2023-09-18T14:48:59;27.20;82.90
32217;DHT22;67098;51.140;4.088;2023-09-18T14:51:27;26.60;83.20
32217;DHT22;67098;51.140;4.088;2023-09-18T14:53:54;26.20;85.10
32217;DHT22;67098;51.140;4.088;2023-09-18T14:56:20;25.90;85.60
32217;DHT22;67098;51.140;4.088;2023-09-18T14:58:46;26.30;85.50
32217;DHT22;67098;51.140;4.088;2023-09-18T15:01:12;27.10;84.60
32217;DHT22;67098;51.140;4.088;2023-09-18T15:03:40;27.80;83.50
32217;DHT22;67098;51.140;4.088;2023-09-18T15:06:06;28.40;81.60
32217;DHT22;67098;51.140;4.088;2023-09-18T15:08:35;28.90;80.20
32217;DHT22;67098;51.140;4.088;2023-09-18T15:11:01;29.00;79.60
32217;DHT22;67098;51.140;4.088;2023-09-18T15:13:30;29.00;79.30
32217;DHT22;67098;51.140;4.088;2023-09-18T15:15:56;28.80;78.70
32217;DHT22;67098;51.140;4.088;2023-09-18T15:18:22;28.80;78.90
32217;DHT22;67098;51.140;4.088;2023-09-18T15:20:48;28.70;78.40
32217;DHT22;67098;51.140;4.088;2023-09-18T15:23:23;28.70;78.20
32217;DHT22;67098;51.140;4.088;2023-09-18T15:25:52;28.30;79.40
32217;DHT22;67098;51.140;4.088;2023-09-18T15:28:21;28.20;79.30
32217;DHT22;67098;51.140;4.088;2023-09-18T15:30:49;27.90;78.00
32217;DHT22;67098;51.140;4.088;2023-09-18T15:33:15;27.50;78.70
32217;DHT22;67098;51.140;4.088;2023-09-18T15:35:43;27.50;78.60
32217;DHT22;67098;51.140;4.088;2023-09-18T15:38:09;27.10;79.30
32217;DHT22;67098;51.140;4.088;2023-09-18T15:40:36;27.10;79.20
32217;DHT22;67098;51.140;4.088;2023-09-18T15:43:02;27.10;78.80
32217;DHT22;67098;51.140;4.088;2023-09-18T15:45:28;27.00;78.60
32217;DHT22;67098;51.140;4.088;2023-09-18T15:47:54;26.80;79.20
32217;DHT22;67098;51.140;4.088;2023-09-18T15:50:19;26.70;79.60
32217;DHT22;67098;51.140;4.088;2023-09-18T15:52:45;26.60;77.20
32217;DHT22;67098;51.140;4.088;2023-09-18T15:55:11;26.40;77.50